Time;durP1;ratioP1;P1;durP2;ratioP2;P2;SDS_P1;SDS_P2;PMS_P1;PMS_P2;Temp;Humidity;BMP_temperature;BMP_pressure;BME280_temperature;BME280_humidity;BME280_pressure;Samples;Min_cycle;Max_cycle;Signal;HPM_P1;HPM_P2
2023/04/04 00:00:57;;;;;;;;;;;;;;;15.25;40.20;103356.16;2080969;28;19928;-62
2023/04/04 00:01:59;;;;;;;;;;;;;;;15.24;40.04;103351.78;2077185;28;19930;-62
2023/04/04 00:03:02;;;;;;;;;;;;;;;15.24;40.28;103365.41;2068893;28;19929;-62
2023/04/04 00:04:04;;;;;;;;;;;;;;;15.25;40.23;103361.59;2068630;28;19929;-62
2023/04/04 00:05:07;;;;;;;;;;;;;;;15.24;39.92;103365.41;2079467;28;19925;-62
2023/04/04 00:06:09;;;;;;;;;;;;;;;15.23;40.10;103352.91;2080705;28;19929;-62
2023/04/04 00:07:11;;;;;;;;;;;;;;;15.23;40.00;103354.84;2075081;28;20381;-63
2023/04/04 00:08:13;;;;;;;;;;;;;;;15.23;40.28;103347.47;2076691;28;19936;-62
2023/04/04 00:09:16;;;;;;;;;;;;;;;15.24;40.04;103361.91;2074546;28;20397;-62
2023/04/04 00:10:17;;;;;;;;;;;;;;;15.23;40.13;103349.38;2077816;28;20357;-62
2023/04/04 00:11:21;;;;;;;;;;;;;;;15.22;40.21;103345.88;2080204;28;19929;-62
2023/04/04 00:12:24;;;;;;;;;;;;;;;15.23;40.00;103346.66;2071516;28;19929;-63
2023/04/04 00:13:29;;;;;;;;;;;;;;;15.22;40.03;103343.16;2071352;28;19929;-62
2023/04/04 00:14:32;;;;;;;;;;;;;;;15.22;40.10;103336.91;2079827;28;20312;-62
2023/04/04 00:15:35;;;;;;;;;;;;;;;15.21;40.10;103344.25;2079184;28;19983;-62
2023/04/04 00:16:38;;;;;;;;;;;;;;;15.21;39.79;103341.53;2078679;28;19994;-62
2023/04/04 00:17:40;;;;;;;;;;;;;;;15.21;40.15;103343.44;2079333;28;19933;-62
2023/04/04 00:18:42;;;;;;;;;;;;;;;15.21;40.23;103336.09;2076758;28;19925;-62
2023/04/04 00:19:45;;;;;;;;;;;;;;;15.20;39.91;103329.06;2079094;28;20457;-62
2023/04/04 00:20:47;;;;;;;;;;;;;;;15.20;40.11;103326.34;2080488;28;19925;-63
2023/04/04 00:21:49;;;;;;;;;;;;;;;15.20;40.15;103329.06;2078244;28;19928;-62
2023/04/04 00:22:52;;;;;;;;;;;;;;;15.20;40.19;103323.63;2078681;28;20449;-62
2023/04/04 00:23:54;;;;;;;;;;;;;;;15.20;40.08;103329.06;2069901;28;19930;-62
2023/04/04 00:24:56;;;;;;;;;;;;;;;15.20;39.92;103328.25;2068362;28;19937;-64
2023/04/04 00:25:58;;;;;;;;;;;;;;;15.19;40.20;103324.69;2080068;28;19929;-62
2023/04/04 00:27:01;;;;;;;;;;;;;;;15.19;39.91;103326.66;2078298;28;20364;-62
2023/04/04 00:28:04;;;;;;;;;;;;;;;15.18;39.95;103331.28;2076224;28;20394;-62
2023/04/04 00:29:07;;;;;;;;;;;;;;;15.18;39.69;103334.00;2079015;28;19940;-62
2023/04/04 00:30:09;;;;;;;;;;;;;;;15.18;39.83;103330.47;2078668;28;19998;-62
2023/04/04 00:31:12;;;;;;;;;;;;;;;15.18;40.01;103336.72;2078715;28;19930;-62
2023/04/04 00:32:15;;;;;;;;;;;;;;;15.17;40.04;103332.41;2079889;28;19991;-62
2023/04/04 00:33:17;;;;;;;;;;;;;;;15.17;40.21;103317.97;2077682;28;19925;-62
2023/04/04 00:34:20;;;;;;;;;;;;;;;15.17;40.18;103326.97;2078534;28;20335;-63
2023/04/04 00:35:22;;;;;;;;;;;;;;;15.16;40.05;103330.78;2080198;28;19929;-63
2023/04/04 00:36:24;;;;;;;;;;;;;;;15.18;40.07;103325.03;2079425;28;19929;-62
2023/04/04 00:37:26;;;;;;;;;;;;;;;15.17;40.07;103332.41;2079335;28;20027;-62
2023/04/04 00:38:29;;;;;;;;;;;;;;;15.17;40.15;103331.59;2066411;28;20086;-61
2023/04/04 00:39:31;;;;;;;;;;;;;;;15.16;39.95;103327.28;2070159;28;20008;-60
2023/04/04 00:40:33;;;;;;;;;;;;;;;15.15;40.01;103331.91;2080655;28;19926;-60
2023/04/04 00:41:35;;;;;;;;;;;;;;;15.15;40.09;103331.91;2073133;28;19929;-60
2023/04/04 00:42:38;;;;;;;;;;;;;;;15.16;40.07;103333.50;2075307;28;20312;-60
2023/04/04 00:43:41;;;;;;;;;;;;;;;15.14;40.14;103327.59;2074665;28;19933;-60
2023/04/04 00:44:44;;;;;;;;;;;;;;;15.14;40.01;103330.31;2074982;28;19929;-61
2023/04/04 00:45:46;;;;;;;;;;;;;;;15.15;40.08;103328.38;2077425;28;19933;-61
2023/04/04 00:46:51;;;;;;;;;;;;;;;15.14;40.12;103327.59;2078670;28;19929;-60
2023/04/04 00:47:54;;;;;;;;;;;;;;;15.15;40.18;103334.63;2079666;28;20011;-60
2023/04/04 00:48:57;;;;;;;;;;;;;;;15.15;40.15;103328.38;2078915;28;19933;-60
2023/04/04 00:49:58;;;;;;;;;;;;;;;15.15;40.20;103331.09;2072417;28;19929;-61
2023/04/04 00:51:01;;;;;;;;;;;;;;;15.13;40.11;103331.41;2075949;28;20340;-60
2023/04/04 00:52:05;;;;;;;;;;;;;;;15.13;40.03;103334.13;2079426;28;19955;-60
2023/04/04 00:53:08;;;;;;;;;;;;;;;15.13;40.04;103336.06;2076571;28;19968;-64
2023/04/04 00:54:10;;;;;;;;;;;;;;;15.12;40.11;103339.88;2078248;28;19933;-60
2023/04/04 00:55:13;;;;;;;;;;;;;;;15.11;40.03;103328.19;2079899;28;19929;-60
2023/04/04 00:56:15;;;;;;;;;;;;;;;15.12;40.08;103334.44;2072376;28;19930;-60
2023/04/04 00:57:18;;;;;;;;;;;;;;;15.11;39.94;103330.91;2075323;28;19953;-60
2023/04/04 00:58:19;;;;;;;;;;;;;;;15.11;40.14;103332.84;2083770;28;19929;-61
2023/04/04 00:59:23;;;;;;;;;;;;;;;15.11;40.30;103327.41;2075119;28;19929;-60
2023/04/04 01:00:26;;;;;;;;;;;;;;;15.10;40.00;103332.03;2074792;28;19926;-60
2023/04/04 01:01:30;;;;;;;;;;;;;;;15.10;40.04;103332.03;2079211;28;19925;-60
2023/04/04 01:02:32;;;;;;;;;;;;;;;15.10;39.92;103321.13;2068547;28;19983;-60
2023/04/04 01:03:35;;;;;;;;;;;;;;;15.09;40.51;103324.97;2069545;28;19965;-61
2023/04/04 01:04:37;;;;;;;;;;;;;;;15.09;39.98;103327.69;2064535;28;20438;-61
2023/04/04 01:05:40;;;;;;;;;;;;;;;15.09;40.07;103324.97;2071141;28;19975;-60
2023/04/04 01:06:41;;;;;;;;;;;;;;;15.09;40.05;103330.44;2070791;28;19925;-60
2023/04/04 01:07:44;;;;;;;;;;;;;;;15.09;40.25;103327.69;2068870;28;20487;-60
2023/04/04 01:08:46;;;;;;;;;;;;;;;15.08;40.24;103334.25;2073840;28;19934;-60
2023/04/04 01:09:49;;;;;;;;;;;;;;;15.08;40.30;103322.56;2069710;28;19929;-60
2023/04/04 01:10:51;;;;;;;;;;;;;;;15.08;40.26;103328.78;2055248;28;19996;-60
2023/04/04 01:11:54;;;;;;;;;;;;;;;15.08;40.16;103319.84;2069699;28;19929;-60
2023/04/04 01:12:57;;;;;;;;;;;;;;;15.08;40.10;103319.84;2078580;28;19929;-60
2023/04/04 01:14:02;;;;;;;;;;;;;;;15.07;40.20;103310.88;2075888;28;20305;-60
2023/04/04 01:15:06;;;;;;;;;;;;;;;15.08;39.96;103325.28;2075628;28;20723;-61
2023/04/04 01:16:09;;;;;;;;;;;;;;;15.07;39.99;103323.66;2071660;28;19936;-61
2023/04/04 01:17:10;;;;;;;;;;;;;;;15.07;39.91;103321.75;2077432;28;19936;-60
2023/04/04 01:18:15;;;;;;;;;;;;;;;15.06;39.93;103325.59;2078614;28;19929;-61
2023/04/04 01:19:22;;;;;;;;;;;;;;;15.07;40.08;103327.19;2065511;28;20414;-60
2023/04/04 01:20:26;;;;;;;;;;;;;;;15.06;40.21;103322.88;2060465;28;19937;-61
2023/04/04 01:21:30;;;;;;;;;;;;;;;15.05;40.07;103321.25;2063612;28;19952;-60
2023/04/04 01:22:33;;;;;;;;;;;;;;;15.05;39.82;103317.75;2063071;28;19930;-59
2023/04/04 01:23:42;;;;;;;;;;;;;;;15.05;40.03;103323.97;2070115;28;19929;-61
2023/04/04 01:24:46;;;;;;;;;;;;;;;15.05;40.04;103323.97;2070245;28;19929;-60
2023/04/04 01:25:58;;;;;;;;;;;;;;;15.05;40.18;103312.31;2073090;28;19929;-61
2023/04/04 01:27:01;;;;;;;;;;;;;;;15.03;39.90;103315.34;2077589;28;19929;-62
2023/04/04 01:28:03;;;;;;;;;;;;;;;15.03;40.08;103315.34;2063307;28;19951;-60
2023/04/04 01:29:05;;;;;;;;;;;;;;;15.03;40.05;103318.06;2061393;28;19953;-60
2023/04/04 01:30:08;;;;;;;;;;;;;;;15.03;40.22;103318.06;2075757;28;19936;-60
2023/04/04 01:31:12;;;;;;;;;;;;;;;15.02;40.24;103314.53;2077339;28;19929;-60
2023/04/04 01:32:18;;;;;;;;;;;;;;;15.02;40.14;103317.25;2063570;28;19945;-61
2023/04/04 01:33:22;;;;;;;;;;;;;;;15.02;40.19;103316.44;2068368;28;20428;-60
2023/04/04 01:34:29;;;;;;;;;;;;;;;15.03;40.21;103315.34;2060418;28;19930;-60
2023/04/04 01:35:35;;;;;;;;;;;;;;;15.02;39.99;103313.72;2072763;28;19929;-60
2023/04/04 01:36:41;;;;;;;;;;;;;;;15.01;40.17;103312.91;2075142;28;20392;-60
2023/04/04 01:37:58;;;;;;;;;;;;;;;15.00;40.14;103311.31;2078555;28;20447;-60
2023/04/04 01:39:04;;;;;;;;;;;;;;;15.00;40.15;103305.88;2070598;28;19956;-60
2023/04/04 01:40:11;;;;;;;;;;;;;;;15.01;39.97;103309.41;2071764;28;20316;-61
2023/04/04 01:41:14;;;;;;;;;;;;;;;15.00;39.91;103307.78;2075312;28;19993;-61
2023/04/04 01:42:25;;;;;;;;;;;;;;;15.00;40.01;103300.44;2085313;28;20003;-61
2023/04/04 01:43:29;;;;;;;;;;;;;;;15.00;40.18;103303.16;2084325;28;20376;-60
2023/04/04 01:44:32;;;;;;;;;;;;;;;15.00;40.18;103305.06;2069527;28;20321;-60
2023/04/04 01:45:35;;;;;;;;;;;;;;;14.99;40.08;103298.84;2062637;28;20454;-60
2023/04/04 01:46:42;;;;;;;;;;;;;;;14.99;40.14;103298.03;2072013;28;19936;-61
2023/04/04 01:47:44;;;;;;;;;;;;;;;15.00;40.02;103299.63;2076509;28;20028;-61
2023/04/04 01:48:51;;;;;;;;;;;;;;;14.99;40.24;103303.47;2066871;28;20409;-61
2023/04/04 01:49:57;;;;;;;;;;;;;;;14.99;40.01;103298.03;2079118;28;19940;-60
2023/04/04 01:51:00;;;;;;;;;;;;;;;14.99;40.12;103300.75;2078249;28;19929;-60
2023/04/04 01:52:02;;;;;;;;;;;;;;;14.97;40.07;103298.34;2079286;28;20019;-61
2023/04/04 01:53:05;;;;;;;;;;;;;;;14.97;40.17;103292.88;2078900;28;19929;-61
2023/04/04 01:54:07;;;;;;;;;;;;;;;14.97;40.23;103295.59;2071739;28;19929;-61
2023/04/04 01:55:10;;;;;;;;;;;;;;;14.98;40.27;103296.44;2083427;28;19960;-61
2023/04/04 01:56:12;;;;;;;;;;;;;;;14.98;39.98;103301.88;2078584;28;19929;-60
2023/04/04 01:57:16;;;;;;;;;;;;;;;14.97;40.17;103289.34;2078830;28;19929;-61
2023/04/04 01:58:18;;;;;;;;;;;;;;;14.96;40.25;103294.00;2065003;28;20695;-60
2023/04/04 01:59:21;;;;;;;;;;;;;;;14.97;39.99;103300.25;2068446;28;19930;-60
2023/04/04 02:00:22;;;;;;;;;;;;;;;14.96;40.11;103287.75;2078454;28;19933;-60
2023/04/04 02:01:25;;;;;;;;;;;;;;;14.96;40.22;103293.19;2079502;28;19964;-60
2023/04/04 02:02:27;;;;;;;;;;;;;;;14.96;40.08;103298.63;2079292;28;19929;-60
2023/04/04 02:03:29;;;;;;;;;;;;;;;14.96;40.45;103298.63;2079417;28;19929;-61
2023/04/04 02:04:31;;;;;;;;;;;;;;;14.95;40.22;103289.66;2076321;28;19971;-60
2023/04/04 02:05:33;;;;;;;;;;;;;;;14.95;40.36;103288.88;2078702;28;20607;-60
2023/04/04 02:06:35;;;;;;;;;;;;;;;14.95;40.25;103292.38;2079382;28;19955;-61
2023/04/04 02:07:40;;;;;;;;;;;;;;;14.94;40.25;103290.78;2078317;28;19933;-60
2023/04/04 02:08:55;;;;;;;;;;;;;;;14.94;40.01;103295.41;2069442;28;20613;-61
2023/04/04 02:09:58;;;;;;;;;;;;;;;14.94;40.30;103293.50;2062545;28;19930;-60
2023/04/04 02:11:00;;;;;;;;;;;;;;;14.94;40.29;103289.97;2070207;28;19929;-61
2023/04/04 02:12:02;;;;;;;;;;;;;;;14.93;40.13;103293.81;2073888;28;20435;-60
2023/04/04 02:13:06;;;;;;;;;;;;;;;14.93;40.29;103299.25;2085357;28;19936;-61
2023/04/04 02:14:08;;;;;;;;;;;;;;;14.92;40.03;103290.28;2078619;28;20237;-60
2023/04/04 02:15:11;;;;;;;;;;;;;;;14.91;40.29;103288.69;2070422;28;20044;-60
2023/04/04 02:16:14;;;;;;;;;;;;;;;14.92;40.20;103294.94;2077084;28;20374;-60
2023/04/04 02:17:17;;;;;;;;;;;;;;;14.91;40.14;103287.88;2081410;28;19928;-60
2023/04/04 02:18:19;;;;;;;;;;;;;;;14.91;40.09;103291.41;2078210;28;19956;-60
2023/04/04 02:19:21;;;;;;;;;;;;;;;14.92;40.29;103289.50;2069846;28;20433;-60
2023/04/04 02:20:23;;;;;;;;;;;;;;;14.91;40.36;103279.72;2076145;28;20308;-60
2023/04/04 02:21:26;;;;;;;;;;;;;;;14.90;40.17;103284.34;2078205;28;19941;-60
2023/04/04 02:22:27;;;;;;;;;;;;;;;14.91;40.25;103287.88;2075942;28;19945;-60
2023/04/04 02:23:30;;;;;;;;;;;;;;;14.90;40.27;103287.06;2078338;28;19929;-60
2023/04/04 02:24:32;;;;;;;;;;;;;;;14.91;40.25;103290.59;2070124;28;20459;-61
2023/04/04 02:25:34;;;;;;;;;;;;;;;14.91;40.00;103279.72;2068242;28;19937;-61
2023/04/04 02:26:36;;;;;;;;;;;;;;;14.90;40.17;103286.28;2074872;28;19929;-61
2023/04/04 02:27:40;;;;;;;;;;;;;;;14.89;40.13;103280.03;2077884;28;19986;-61
2023/04/04 02:28:43;;;;;;;;;;;;;;;14.89;40.30;103287.38;2070605;28;19934;-60
2023/04/04 02:29:46;;;;;;;;;;;;;;;14.88;40.37;103289.31;2070008;28;19926;-60
2023/04/04 02:30:48;;;;;;;;;;;;;;;14.89;40.08;103287.38;2077143;28;20400;-61
2023/04/04 02:31:50;;;;;;;;;;;;;;;14.89;40.27;103288.19;2079114;28;19998;-61
2023/04/04 02:32:52;;;;;;;;;;;;;;;14.89;40.27;103287.38;2079124;28;20400;-60
2023/04/04 02:33:56;;;;;;;;;;;;;;;14.88;40.36;103285.78;2073946;28;19968;-60
2023/04/04 02:34:58;;;;;;;;;;;;;;;14.88;40.28;103291.22;2061664;28;19941;-61
2023/04/04 02:36:01;;;;;;;;;;;;;;;14.89;40.43;103292.81;2054504;28;20402;-61
2023/04/04 02:37:03;;;;;;;;;;;;;;;14.87;40.29;103286.91;2059623;28;20346;-60
2023/04/04 02:38:06;;;;;;;;;;;;;;;14.88;40.07;103291.22;2055962;28;20314;-60
2023/04/04 02:39:15;;;;;;;;;;;;;;;14.88;40.05;103299.38;2071387;28;19930;-60
2023/04/04 02:40:18;;;;;;;;;;;;;;;14.87;40.39;103300.50;2077841;28;19929;-61
2023/04/04 02:41:19;;;;;;;;;;;;;;;14.87;40.24;103292.34;2074795;28;20419;-60
2023/04/04 02:42:22;;;;;;;;;;;;;;;14.87;40.35;103305.94;2076346;28;20436;-60
2023/04/04 02:43:24;;;;;;;;;;;;;;;14.87;40.42;103303.22;2070983;28;20101;-61
2023/04/04 02:44:29;;;;;;;;;;;;;;;14.86;40.59;103298.88;2070009;28;19930;-60
2023/04/04 02:45:31;;;;;;;;;;;;;;;14.85;40.44;103303.53;2069271;28;19929;-60
2023/04/04 02:46:41;;;;;;;;;;;;;;;14.85;40.30;103314.41;2066240;28;19979;-60
2023/04/04 02:47:48;;;;;;;;;;;;;;;14.85;40.28;103305.44;2063525;28;19930;-60
2023/04/04 02:48:52;;;;;;;;;;;;;;;14.85;40.42;103303.53;2065102;28;20388;-61
2023/04/04 02:49:54;;;;;;;;;;;;;;;14.85;40.40;103308.97;2080446;28;20485;-60
2023/04/04 02:50:59;;;;;;;;;;;;;;;14.86;40.26;103309.75;2079460;28;19933;-60
2023/04/04 02:52:01;;;;;;;;;;;;;;;14.84;40.21;103301.91;2079487;28;19925;-60
2023/04/04 02:53:09;;;;;;;;;;;;;;;14.84;40.04;103301.13;2064451;28;20941;-60
2023/04/04 02:54:11;;;;;;;;;;;;;;;14.83;40.27;103307.66;2080030;28;19925;-61
2023/04/04 02:55:18;;;;;;;;;;;;;;;14.83;40.31;103299.50;2074438;28;19929;-60
2023/04/04 02:56:20;;;;;;;;;;;;;;;14.84;40.41;103301.13;2055076;28;20418;-61
2023/04/04 02:57:22;;;;;;;;;;;;;;;14.83;40.46;103299.50;2056479;28;20314;-60
2023/04/04 02:58:24;;;;;;;;;;;;;;;14.83;40.18;103291.34;2063689;28;19973;-60
2023/04/04 02:59:27;;;;;;;;;;;;;;;14.82;40.33;103287.03;2060604;28;20377;-60
2023/04/04 03:00:30;;;;;;;;;;;;;;;14.82;40.27;103296.00;2064394;28;19941;-60
2023/04/04 03:01:33;;;;;;;;;;;;;;;14.82;40.39;103290.56;2079302;28;19961;-60
2023/04/04 03:02:37;;;;;;;;;;;;;;;14.82;40.48;103303.34;2067830;28;19972;-60
2023/04/04 03:03:40;;;;;;;;;;;;;;;14.83;40.19;103304.94;2066345;28;20880;-61
2023/04/04 03:04:42;;;;;;;;;;;;;;;14.82;40.40;103293.28;2073387;28;20015;-60
2023/04/04 03:05:45;;;;;;;;;;;;;;;14.82;40.56;103284.31;2077572;28;19945;-60
2023/04/04 03:06:47;;;;;;;;;;;;;;;14.81;40.44;103296.28;2079074;28;19925;-60
2023/04/04 03:07:52;;;;;;;;;;;;;;;14.82;40.61;103303.34;2078314;28;19933;-61
2023/04/04 03:08:55;;;;;;;;;;;;;;;14.82;40.52;103285.13;2084513;28;19929;-61
2023/04/04 03:09:57;;;;;;;;;;;;;;;14.81;40.26;103294.38;2080568;28;20372;-61
2023/04/04 03:10:59;;;;;;;;;;;;;;;14.82;40.30;103284.31;2075039;28;20007;-60
2023/04/04 03:12:03;;;;;;;;;;;;;;;14.82;40.47;103287.03;2069814;28;19980;-61
2023/04/04 03:13:04;;;;;;;;;;;;;;;14.81;40.76;103291.66;2079595;28;19929;-61
2023/04/04 03:14:08;;;;;;;;;;;;;;;14.81;40.18;103285.41;2081684;28;19925;-61
2023/04/04 03:15:13;;;;;;;;;;;;;;;14.81;40.47;103279.97;2087793;28;19966;-60
2023/04/04 03:16:18;;;;;;;;;;;;;;;14.80;40.19;103283.81;2079443;28;20430;-62
2023/04/04 03:17:24;;;;;;;;;;;;;;;14.79;40.54;103277.56;2074420;28;19929;-60
2023/04/04 03:18:27;;;;;;;;;;;;;;;14.79;40.49;103276.78;2083572;28;20424;-60
2023/04/04 03:19:28;;;;;;;;;;;;;;;14.79;40.48;103279.50;2074630;28;19981;-60
2023/04/04 03:20:31;;;;;;;;;;;;;;;14.80;40.53;103275.66;2076295;28;19937;-61
2023/04/04 03:21:33;;;;;;;;;;;;;;;14.79;40.66;103276.78;2080655;28;20316;-60
2023/04/04 03:22:36;;;;;;;;;;;;;;;14.79;40.65;103277.56;2069747;28;19983;-60
2023/04/04 03:23:38;;;;;;;;;;;;;;;14.79;40.31;103279.50;2063175;28;20016;-61
2023/04/04 03:24:41;;;;;;;;;;;;;;;14.79;40.38;103276.78;2063312;28;19980;-60
2023/04/04 03:25:42;;;;;;;;;;;;;;;14.79;40.32;103272.13;2072009;28;19933;-60
2023/04/04 03:26:45;;;;;;;;;;;;;;;14.80;40.38;103272.94;2069388;28;20000;-60
2023/04/04 03:27:47;;;;;;;;;;;;;;;14.78;40.38;103270.53;2067102;28;19926;-60
2023/04/04 03:28:56;;;;;;;;;;;;;;;14.79;40.58;103274.06;2075891;28;19936;-60
2023/04/04 03:29:59;;;;;;;;;;;;;;;14.78;40.35;103265.09;2068405;28;20023;-60
2023/04/04 03:31:06;;;;;;;;;;;;;;;14.78;40.39;103265.09;2073494;28;19936;-61
2023/04/04 03:32:13;;;;;;;;;;;;;;;14.78;40.66;103270.53;2072963;28;19929;-60
2023/04/04 03:33:16;;;;;;;;;;;;;;;14.78;40.27;103261.53;2068594;28;20328;-60
2023/04/04 03:34:18;;;;;;;;;;;;;;;14.78;40.33;103269.72;2076624;28;19936;-60
2023/04/04 03:35:20;;;;;;;;;;;;;;;14.78;40.52;103267.00;2076345;28;19934;-61
2023/04/04 03:36:23;;;;;;;;;;;;;;;14.78;40.49;103264.28;2079366;28;19929;-60
2023/04/04 03:37:25;;;;;;;;;;;;;;;14.76;40.54;103270.03;2080711;28;20393;-60
2023/04/04 03:38:27;;;;;;;;;;;;;;;14.78;40.55;103264.28;2076559;28;20500;-60
2023/04/04 03:39:29;;;;;;;;;;;;;;;14.77;40.55;103270.84;2076306;28;20292;-60
2023/04/04 03:40:32;;;;;;;;;;;;;;;14.76;40.69;103261.06;2081760;28;20384;-61
2023/04/04 03:41:34;;;;;;;;;;;;;;;14.76;40.04;103266.50;2076958;28;20011;-61
2023/04/04 03:42:37;;;;;;;;;;;;;;;14.76;40.36;103263.78;2066563;28;19929;-61
2023/04/04 03:43:42;;;;;;;;;;;;;;;14.76;40.43;103266.50;2069697;28;19929;-60
2023/04/04 03:44:45;;;;;;;;;;;;;;;14.75;40.24;103264.88;2061051;28;20048;-60
2023/04/04 03:45:52;;;;;;;;;;;;;;;14.75;40.43;103267.59;2074211;28;19930;-61
2023/04/04 03:46:55;;;;;;;;;;;;;;;14.75;40.29;103275.75;2081400;28;19929;-61
2023/04/04 03:47:59;;;;;;;;;;;;;;;14.75;40.54;103278.50;2073599;28;20845;-62
2023/04/04 03:49:02;;;;;;;;;;;;;;;14.74;40.53;103274.97;2065404;28;20378;-62
2023/04/04 03:50:05;;;;;;;;;;;;;;;14.75;40.23;103270.31;2063406;28;20261;-62
2023/04/04 03:51:09;;;;;;;;;;;;;;;14.74;40.50;103276.88;2063028;28;20012;-62
2023/04/04 03:52:12;;;;;;;;;;;;;;;14.75;40.13;103273.84;2072261;28;20041;-62
2023/04/04 03:53:15;;;;;;;;;;;;;;;14.74;40.34;103274.16;2074670;28;20305;-62
2023/04/04 03:54:17;;;;;;;;;;;;;;;14.73;40.20;103278.00;2076833;28;19929;-62
2023/04/04 03:55:20;;;;;;;;;;;;;;;14.73;40.34;103272.56;2075836;28;19929;-62
2023/04/04 03:56:22;;;;;;;;;;;;;;;14.73;40.34;103273.34;2076401;28;20369;-62
2023/04/04 03:57:26;;;;;;;;;;;;;;;14.73;40.51;103283.47;2080524;28;20297;-62
2023/04/04 03:58:27;;;;;;;;;;;;;;;14.72;40.45;103270.94;2070992;28;19975;-62
2023/04/04 03:59:30;;;;;;;;;;;;;;;14.73;40.50;103278.00;2059055;28;20005;-62
2023/04/04 04:00:32;;;;;;;;;;;;;;;14.73;40.33;103267.13;2066626;28;20356;-62
2023/04/04 04:01:34;;;;;;;;;;;;;;;14.72;40.40;103266.31;2072407;28;19973;-61
2023/04/04 04:02:36;;;;;;;;;;;;;;;14.72;40.46;103268.22;2064099;28;20306;-61
2023/04/04 04:03:40;;;;;;;;;;;;;;;14.72;40.22;103270.94;2062190;28;19936;-60
2023/04/04 04:04:42;;;;;;;;;;;;;;;14.71;40.19;103270.13;2069508;28;19925;-60
2023/04/04 04:05:45;;;;;;;;;;;;;;;14.72;40.44;103279.09;2083780;28;19925;-60
2023/04/04 04:06:47;;;;;;;;;;;;;;;14.72;40.28;103270.94;2080053;28;19960;-60
2023/04/04 04:07:51;;;;;;;;;;;;;;;14.71;40.18;103270.13;2080133;28;19936;-60
2023/04/04 04:08:55;;;;;;;;;;;;;;;14.70;40.35;103273.97;2078535;28;19955;-60
2023/04/04 04:09:57;;;;;;;;;;;;;;;14.70;40.26;103263.09;2076243;28;20535;-60
2023/04/04 04:11:02;;;;;;;;;;;;;;;14.70;40.50;103265.81;2076870;28;19968;-60
2023/04/04 04:12:05;;;;;;;;;;;;;;;14.70;40.43;103265.00;2079032;28;19974;-61
2023/04/04 04:13:08;;;;;;;;;;;;;;;14.70;40.21;103265.00;2071292;28;19964;-60
2023/04/04 04:14:10;;;;;;;;;;;;;;;14.70;40.39;103262.28;2058169;28;20291;-60
2023/04/04 04:15:13;;;;;;;;;;;;;;;14.71;40.36;103263.91;2067087;28;20457;-60
2023/04/04 04:16:16;;;;;;;;;;;;;;;14.70;40.46;103271.25;2072653;28;20039;-59
2023/04/04 04:17:19;;;;;;;;;;;;;;;14.69;40.47;103266.13;2069143;28;20389;-60
2023/04/04 04:18:22;;;;;;;;;;;;;;;14.69;40.27;103266.94;2063532;28;20060;-60
2023/04/04 04:19:27;;;;;;;;;;;;;;;14.69;40.34;103272.38;2061469;28;20432;-60
2023/04/04 04:20:31;;;;;;;;;;;;;;;14.69;39.96;103272.38;2067232;28;19980;-60
2023/04/04 04:21:32;;;;;;;;;;;;;;;14.69;40.08;103266.94;2079373;28;20411;-60
2023/04/04 04:22:36;;;;;;;;;;;;;;;14.69;40.34;103266.94;2071514;28;19929;-60
2023/04/04 04:23:38;;;;;;;;;;;;;;;14.68;40.31;103259.09;2071596;28;19929;-59
2023/04/04 04:24:41;;;;;;;;;;;;;;;14.69;40.37;103263.41;2079026;28;19972;-60
2023/04/04 04:25:46;;;;;;;;;;;;;;;14.68;40.20;103270.75;2067562;28;19929;-60
2023/04/04 04:26:51;;;;;;;;;;;;;;;14.67;39.94;103257.47;2079235;28;19937;-60
2023/04/04 04:27:54;;;;;;;;;;;;;;;14.67;39.71;103262.91;2079380;28;19980;-61
2023/04/04 04:28:57;;;;;;;;;;;;;;;14.67;40.32;103254.75;2065557;28;20013;-60
2023/04/04 04:30:04;;;;;;;;;;;;;;;14.67;40.04;103257.47;2069500;28;20027;-60
2023/04/04 04:31:11;;;;;;;;;;;;;;;14.67;40.35;103257.47;2077247;28;19929;-59
2023/04/04 04:32:20;;;;;;;;;;;;;;;14.67;40.27;103263.72;2077733;28;19929;-60
2023/04/04 04:33:28;;;;;;;;;;;;;;;14.66;40.02;103259.41;2063351;28;19937;-60
2023/04/04 04:34:35;;;;;;;;;;;;;;;14.66;39.93;103266.75;2080021;28;19929;-60
2023/04/04 04:35:40;;;;;;;;;;;;;;;14.66;39.89;103266.75;2079501;28;19955;-60
2023/04/04 04:36:42;;;;;;;;;;;;;;;14.67;40.14;103265.63;2072204;28;19934;-60
2023/04/04 04:38:09;;;;;;;;;;;;;;;14.66;40.21;103261.31;2064023;28;19931;-63
2023/04/04 04:39:12;;;;;;;;;;;;;;;14.65;40.08;103260.50;2077832;28;19925;-60
2023/04/04 04:40:25;;;;;;;;;;;;;;;14.65;40.08;103265.94;2070658;28;19937;-60
2023/04/04 04:41:39;;;;;;;;;;;;;;;14.65;40.40;103270.59;2064502;28;20000;-60
2023/04/04 04:42:44;;;;;;;;;;;;;;;14.65;40.11;103265.16;2072115;28;19929;-60
2023/04/04 04:43:49;;;;;;;;;;;;;;;14.64;40.27;103258.09;2070880;28;19933;-59
2023/04/04 04:44:50;;;;;;;;;;;;;;;14.64;40.26;103264.34;2075106;28;19929;-60
2023/04/04 04:45:54;;;;;;;;;;;;;;;14.64;40.07;103263.53;2081240;28;20392;-60
2023/04/04 04:46:56;;;;;;;;;;;;;;;14.63;40.09;103257.31;2078726;28;20028;-60
2023/04/04 04:47:59;;;;;;;;;;;;;;;14.64;40.42;103258.09;2071571;28;19940;-60
2023/04/04 04:49:01;;;;;;;;;;;;;;;14.63;40.15;103251.88;2071448;28;20055;-60
2023/04/04 04:50:07;;;;;;;;;;;;;;;14.63;40.25;103251.88;2066073;28;19929;-60
2023/04/04 04:51:15;;;;;;;;;;;;;;;14.62;39.82;103252.97;2078079;28;19929;-59
2023/04/04 04:52:22;;;;;;;;;;;;;;;14.63;40.13;103253.78;2084066;28;20195;-59
2023/04/04 04:53:25;;;;;;;;;;;;;;;14.64;39.74;103258.09;2076101;28;19929;-60
2023/04/04 04:54:27;;;;;;;;;;;;;;;14.63;40.16;103261.94;2078417;28;20023;-60
2023/04/04 04:55:30;;;;;;;;;;;;;;;14.62;40.05;103254.88;2068959;28;19934;-60
2023/04/04 04:56:37;;;;;;;;;;;;;;;14.62;39.85;103272.00;2079549;28;20415;-60
2023/04/04 04:57:44;;;;;;;;;;;;;;;14.62;39.90;103265.75;2083560;28;19933;-60
2023/04/04 04:58:51;;;;;;;;;;;;;;;14.62;39.96;103268.47;2067563;28;19937;-61
2023/04/04 04:59:57;;;;;;;;;;;;;;;14.62;40.21;103265.75;2077336;28;20854;-60
2023/04/04 05:01:02;;;;;;;;;;;;;;;14.61;39.98;103270.41;2078117;28;19929;-59
2023/04/04 05:02:12;;;;;;;;;;;;;;;14.61;39.97;103269.59;2063746;28;20003;-60
2023/04/04 05:03:21;;;;;;;;;;;;;;;14.61;39.98;103277.75;2063813;28;19926;-60
2023/04/04 05:04:23;;;;;;;;;;;;;;;14.60;39.99;103279.66;2060641;28;20056;-61
2023/04/04 05:05:36;;;;;;;;;;;;;;;14.60;40.00;103281.59;2058666;28;20048;-60
2023/04/04 05:06:42;;;;;;;;;;;;;;;14.60;40.13;103287.03;2060141;28;20581;-60
2023/04/04 05:07:47;;;;;;;;;;;;;;;14.60;39.97;103290.53;2061137;28;20012;-60
2023/04/04 05:08:49;;;;;;;;;;;;;;;14.59;39.68;103288.94;2077201;28;19929;-63
2023/04/04 05:10:15;;;;;;;;;;;;;;;14.60;40.08;103289.75;2071042;28;20045;-60
2023/04/04 05:11:17;;;;;;;;;;;;;;;14.58;39.91;103292.78;2071608;28;20016;-60
2023/04/04 05:12:20;;;;;;;;;;;;;;;14.59;39.78;103288.13;2070550;28;20017;-60
2023/04/04 05:13:24;;;;;;;;;;;;;;;14.58;40.02;103291.97;2070639;28;19944;-60
2023/04/04 05:14:26;;;;;;;;;;;;;;;14.57;39.67;103288.44;2076078;28;19948;-60
2023/04/04 05:15:31;;;;;;;;;;;;;;;14.58;39.95;103291.97;2078257;28;19925;-60
2023/04/04 05:16:34;;;;;;;;;;;;;;;14.59;39.99;103293.56;2070526;28;19934;-62
2023/04/04 05:17:38;;;;;;;;;;;;;;;14.58;39.88;103294.69;2073621;28;20059;-60
2023/04/04 05:18:41;;;;;;;;;;;;;;;14.58;39.57;103294.69;2075372;28;19936;-60
2023/04/04 05:19:46;;;;;;;;;;;;;;;14.58;39.63;103291.97;2057568;28;19936;-61
2023/04/04 05:20:55;;;;;;;;;;;;;;;14.57;39.83;103293.09;2062188;28;19959;-60
2023/04/04 05:21:59;;;;;;;;;;;;;;;14.57;39.97;103295.81;2063592;28;19930;-60
2023/04/04 05:23:07;;;;;;;;;;;;;;;14.56;39.88;103289.56;2063709;28;20386;-61
2023/04/04 05:24:16;;;;;;;;;;;;;;;14.56;39.76;103283.28;2062246;28;19985;-65
2023/04/04 05:25:17;;;;;;;;;;;;;;;14.57;39.83;103284.94;2073793;28;19936;-60
2023/04/04 05:26:21;;;;;;;;;;;;;;;14.56;39.63;103283.28;2081014;28;19929;-60
2023/04/04 05:27:26;;;;;;;;;;;;;;;14.56;39.61;103288.75;2078511;28;19937;-60